Bavaria

Go HERE for most recent data if this page is not up to date.

Jump to table bottom
Date Time Temp F RH % AVG Wind Max Wind Wind Dir 24 Snow Depth
04/15 15:00 33.5 85 2 7 W - 250 0.3 49.7
04/15 14:00 33.1 84 6 12 E - 79 0.7 50.0
04/15 13:00 32.9 82 5 8 NW - 330 1.1 50.2
04/15 12:00 31.9 86 6 10 N - 342 1.2 152.5
04/15 11:00 31.7 85 3 8 N - 9 1.8 50.8
04/15 10:00 33.3 82 0 3 W - 252 2.0 51.1
04/15 09:00 34.5 77 0 3 SE - 157 2.4 51.2
04/15 08:00 30.8 87 2 15 N - 20 2.4 52.0
04/15 07:00 30.6 83 1 10 N - 4 2.5 152.5
04/15 06:00 29.5 91 0 2 NE - 58 1.8 152.5
04/15 05:00 29.9 91 1 5 NW - 325 0.0 152.5
04/15 04:00 30.1 89 2 9 W - 284 1.0 152.5
04/15 03:00 31.1 86 0 3 N - 11 0.0 48.7
04/15 02:00 31.9 82 0 4 E - 72 -0.0 48.3
04/15 01:00 36.8 50 1 5 SE - 154 0.0 48.4
04/15 00:00 37.2 50 4 7 W - 275 0.0 48.4
04/14 23:00 38.5 39 5 9 W - 267 0.1 48.5
04/14 22:00 39.2 40 5 9 W - 290 0.1 48.6
04/14 21:00 38.8 39 4 8 NW - 295 0.2 48.7
04/14 20:00 40.1 35 0 5 W - 290 0.0 48.4
04/14 19:00 42.9 31 1 3 W - 292 -0.0 48.1
04/14 18:00 48.5 25 2 7 NW - 293 0.0 48.1
04/14 17:00 50.7 20 2 7 S - 186 -0.0 48.3
04/14 16:00 50.0 21 3 5 S - 175 -0.0 48.0
04/14 15:00 51.0 20 4 8 SW - 205 -0.4 48.8
04/14 14:00 52.8 20 2 4 SW - 211 -0.1 48.7
04/14 13:00 49.6 26 3 6 S - 160 -0.5 48.6
04/14 12:00 54.0 23 3 6 SE - 124 -0.4 48.7
04/14 11:00 51.7 24 2 6 SE - 151 -0.2 49.5
04/14 10:00 51.0 25 1 4 SE - 146 -0.0 50.4
04/14 09:00 46.7 25 0 3 S - 194 0.1 50.6
04/14 08:00 39.6 31 0 5 SW - 245 0.3 50.5
04/14 07:00 37.9 32 1 5 W - 282 0.3 50.7
04/14 06:00 37.2 33 0 4 W - 274 0.2 50.5
04/14 05:00 37.6 39 1 3 W - 284 0.2 50.6
04/14 04:00 38.3 42 2 7 NW - 300 0.1 50.5
04/14 03:00 38.6 41 1 5 S - 183 0.3 50.6
04/14 02:00 38.7 43 1 4 NW - 314 0.2 50.5
04/14 01:00 38.6 46 0 4 W - 278 0.2 50.5
04/14 00:00 39.4 48 1 4 NW - 332 0.2 50.5
.